Zacatecas, Mexico

11:59 AM CDT on July 23, 2016 (GMT -0500)
La Isabelica | | Change Station

Elev 8130 ft 22.76 °N, 102.57 °W | Updated 4 seconds ago

Scattered Clouds
Scattered Clouds
66.0 °F
Feels Like 66.0 °F
N
1.1
Wind Variable Wind from SE
Gusts 2.5 mph

Today
High -- | Low -- °F
--% Chance of Precip.
Yesterday
High -- | Low -- °F
Precip. -- in
Pressure 30.35 in
Visibility 10.0 miles
Clouds Scattered Clouds 3000 ft
Dew Point 52 °F
Humidity 61%
Rainfall 0.00 in
Snow Depth Not available.
7:17 AM 8:35 PM
Waning Gibbous, 84% visible
METAR MMZC 231648Z 23010KT 10SM SCT030 22/12 A3035 RMK 8/100
Pressure 30.35 in
Visibility 10.0 miles
Clouds Scattered Clouds 3000 ft
Dew Point 52 °F
Humidity 61%
Rainfall 0.00 in
Snow Depth Not available.
7:17 AM 8:35 PM
Waning Gibbous, 84% visible
METAR MMZC 231648Z 23010KT 10SM SCT030 22/12 A3035 RMK 8/100

10-Day Weather Forecast

No radar image for this location.
×

Almanac

Astronomy

Jul. 23, 2016 Rise Set
Actual Time
Civil Twilight
Nautical Twilight
Astronomical Twilight
Moon
Length of Visible Light
Length of Day
Tomorrow will be .
, % of the Moon is Illuminated

Today's Extremes

Country Highs Country Lows

Community

WunderPhotos

Upload Photos

1,926,861 photos uploaded!

WunderBlog® & News

Nearby

Air Quality

  Air Quality AQ Index Pollutant
Not available.

Snow Depth

Station Depth Elevation

Earthquake Activity

City Distance Mag. Time & Date
Minimum magnitude displayed is 2.5.

Coastal Water Temperatures

Place Temperature

Stations

Nearby Weather Stations

Station Location Temp. Windchill Dew Point Humidity Wind Precip. Elev Updated Type